• Join FlightAware (Why Join?)
  • Login
  • US Flag 
06:31PM EST


 

Airport Tracker/Info


-or-


 

Live Flight TrackerFlight Track Log ✈ JZA7652 ✈ 22-Jul-2014 ✈ CYUL - KDCA

Flight Track Log - Related Links

Times and Time Zones

All times are in EDT time to prevent confusion due to time zone crossing. See the JZA7652 flight status page for this flight to view local times or setup timezone preferences in your user account.

Time Position Orientation Groundspeed Altitude Reporting Facility
EDT Latitude Longitude Course Direction KTS MPH feet Rate Location/Type
02:30PM 45.4333 -73.7167 305° West 370 426 100  Level Montreal Center
02:45PM 45.4500 -73.7500 198° South 120 138 200 120 Climbing Montreal Center
02:46PM 44.7889 -74.1167 189° South  Level FlightAware Approximate
02:46PM 45.4167 -73.8000 226° Southwest 170 196 2,000  Level Montreal Center
02:47PM 44.7010 -74.1307 173° South  Level FlightAware Approximate
02:47PM 45.3833 -73.8500 227° Southwest 190 219 4,500  Level Montreal Center
02:48PM 45.3167 -73.8667 190° South 230 265 6,500 1,800 Climbing Montreal Center
02:49PM 45.2500 -73.9000 199° South 270 311 8,200 1,800 Climbing Montreal Center
02:50PM 45.1667 -73.9000 180° South 300 345 10,100 1,500 Climbing Montreal Center
02:51PM 45.0833 -73.8833 172° South 330 380 11,300 1,260 Climbing Montreal Center
02:52PM 44.9833 -73.8833 180° South 350 403 12,700 1,440 Climbing Montreal Center
02:53PM 44.8833 -73.8833 180° South 360 414 14,200 1,320 Climbing Montreal Center
02:54PM 44.8150 -73.8900 184° South 364 419 15,100 1,080 Climbing Boston Center
02:55PM 44.7106 -73.8850 178° South 377 434 16,200 1,080 Climbing Boston Center
02:56PM 44.5969 -73.8806 178° South 380 437 17,400 1,020 Climbing Boston Center
02:57PM 44.4908 -73.8764 178° South 387 445 18,400 900 Climbing Boston Center
02:58PM 44.3956 -73.8711 178° South 387 445 19,300 840 Climbing Boston Center
02:59PM 44.2639 -73.8653 178° South 390 449 20,200 720 Climbing Boston Center
03:00PM 44.1533 -73.8614 179° South 395 455 20,800 600 Climbing Boston Center
03:01PM 44.0400 -73.8564 178° South 404 465 21,500 660 Climbing Boston Center
03:02PM 43.9258 -73.8511 178° South 409 471 22,200 600 Climbing Boston Center
03:03PM 43.8117 -73.8469 178° South 409 471 22,800 840 Climbing Boston Center
03:04PM 43.6967 -73.8433 179° South 413 475 24,000 1,140 Climbing Boston Center
03:05PM 43.5861 -73.8375 178° South 403 464 25,200 1,200 Climbing Boston Center
03:06PM 43.4567 -73.8319 178° South 393 452 26,600 840 Climbing Boston Center
03:07PM 43.3503 -73.8272 178° South 386 444 27,000 600 Climbing Boston Center
03:08PM 43.2397 -73.8225 178° South 396 456 27,900 480 Climbing Boston Center
03:09PM 43.1244 -73.8186 179° South 396 456 28,000  Climbing Boston Center
03:10PM 43.0075 -73.8142 178° South 415 478 28,000  Level Boston Center
03:11PM 42.8881 -73.8097 178° South 427 491 28,000  Level Boston Center
03:12PM 42.7656 -73.8039 178° South 440 506 28,000  Level Boston Center
03:13PM 42.6417 -73.7881 175° South 447 514 28,000  Level Boston Center
03:14PM 42.5178 -73.7692 174° South 448 516 28,000  Level Boston Center
03:15PM 42.3689 -73.7458 173° South 449 517 28,000  Level Boston Center
03:16PM 42.2453 -73.7264 173° South 450 518 28,000  Level Boston Center
03:17PM 42.1208 -73.7081 174° South 450 518 28,000  Level Boston Center
03:18PM 41.9964 -73.6892 174° South 451 519 28,000  Level Boston Center
03:19PM 41.8797 -73.7392 198° South 442 509 28,000  Level Boston Center
03:20PM 41.7597 -73.8136 205° Southwest 442 509 28,000  Level Boston Center
03:21PM 41.6489 -73.8814 205° Southwest 441 507 28,000  Level Boston Center
03:22PM 41.5372 -73.9497 205° Southwest 442 509 28,000  Level Boston Center
03:23PM 41.4256 -74.0183 205° Southwest 442 509 28,000  Level Boston Center
03:24PM 41.3086 -74.0911 205° Southwest 447 514 28,000  Level New York Center
03:25PM 41.1942 -74.1597 204° Southwest 447 514 28,000  Level New York Center
03:26PM 41.0842 -74.2231 203° Southwest 447 514 28,000  Level New York Center
03:27PM 40.9694 -74.2914 204° Southwest 447 514 28,000  Level New York Center
03:28PM 40.8569 -74.3597 205° Southwest 447 514 28,000  Level New York Center
03:29PM 40.7606 -74.4531 216° Southwest 447 514 28,000  Level New York Center
03:30PM 40.6836 -74.5803 231° Southwest 437 503 28,000  Level New York Center
03:31PM 40.6044 -74.7044 230° Southwest 443 510 28,000 -360 Level New York Center
03:32PM 40.5231 -74.8281 229° Southwest 448 516 27,400 -840 Descending New York Center
03:33PM 40.4397 -74.9458 227° Southwest 448 516 26,400 -1,020 Descending New York Center
03:34PM 40.3497 -75.0711 227° Southwest 454 522 25,400 -1,620 Descending New York Center
03:35PM 40.2642 -75.1936 228° Southwest 454 522 23,200 -2,400 Descending New York Center
03:36PM 40.1803 -75.3133 227° Southwest 454 522 20,700 -1,620 Descending New York Center
03:37PM 40.1011 -75.4222 226° Southwest 447 514 20,000 -360 Descending New York Center
03:38PM 40.0283 -75.5203 226° Southwest 416 479 20,000  Level New York Center
03:40PM 39.8842 -75.7269 230° Southwest 396 456 20,000  Level New York Center
03:41PM 39.8150 -75.8383 231° Southwest 402 463 20,000  Level New York Center
03:42PM 39.7433 -75.9519 231° Southwest 408 470 20,000 -600 Level New York Center
03:43PM 39.6739 -76.0575 229° Southwest 408 470 18,800 -1,800 Descending New York Center
03:47PM 39.4167 -76.4500 223° Southwest 342 394 12,000 -1,560 Descending Potomac TRACON
03:48PM 39.3500 -76.5167 218° Southwest 333 383 12,000 -720 Level Potomac TRACON
03:50PM 39.2000 -76.6333 211° Southwest 285 328 10,000 -540 Descending Potomac TRACON
03:52PM 39.0787 -76.7522 223° Southwest  Level FlightAware Approximate
03:52PM 39.0833 -76.7667 222° Southwest 286 329 10,000  Level Potomac TRACON
03:53PM 39.0167 -76.8333 218° Southwest 291 335 8,800 -1,440 Descending Potomac TRACON
03:54PM 38.9667 -76.9167 232° Southwest 281 323 7,200 -960 Descending Potomac TRACON
03:56PM 39.0167 -77.0833 291° West 278 320 6,000 -780 Descending Potomac TRACON
03:57PM 39.0833 -77.1500 322° Northwest 276 318 5,000 -540 Descending Potomac TRACON
03:58PM 39.1333 -77.2333 308° West 278 320 5,000  Level Potomac TRACON
03:59PM 39.1000 -77.2833 229° Southwest 277 319 5,000 -480 Level Potomac TRACON
04:00PM 39.0333 -77.2333 150° Southeast 259 298 4,100 -1,020 Descending Potomac TRACON
04:01PM 39.0000 -77.1833 131° Southeast 204 235 3,000 -900 Descending Potomac TRACON
04:02PM 38.9500 -77.1500 153° Southeast 176 203 2,400 -780 Descending Potomac TRACON
04:03PM 38.9167 -77.1000 131° Southeast 172 198 1,500 -960 Descending Potomac TRACON
04:04PM 38.9000 -77.0667 123° Southeast 148 170 500 -1,020 Descending Potomac TRACON